createdAt,value
2017-06-28T00:00:02.906Z,68.88
2017-06-28T00:00:31.029Z,68.88
2017-06-28T00:00:59.192Z,68.69
2017-06-28T00:01:27.233Z,69.36
2017-06-28T00:01:55.183Z,69.46
2017-06-28T00:02:23.313Z,68.88
2017-06-28T00:02:51.458Z,69.46
2017-06-28T00:03:19.501Z,68.98
2017-06-28T00:03:47.639Z,69.36
2017-06-28T00:04:15.681Z,69.56
2017-06-28T00:04:43.713Z,69.46
2017-06-28T00:05:11.765Z,69.74
2017-06-28T00:05:39.908Z,69.46
2017-06-28T00:06:07.967Z,70.07
2017-06-28T00:06:36.103Z,69.84
2017-06-28T00:07:04.210Z,70.03
2017-06-28T00:07:32.340Z,69.93
2017-06-28T00:08:00.482Z,69.84
2017-06-28T00:08:28.634Z,69.65
2017-06-28T00:08:56.777Z,69.84
2017-06-28T00:09:24.804Z,69.65
2017-06-28T00:09:52.951Z,69.56
2017-06-28T00:10:21.092Z,70.23
2017-06-28T00:10:49.064Z,70.03
2017-06-28T00:11:17.194Z,70.13
2017-06-28T00:11:45.236Z,70.32
2017-06-28T00:12:13.209Z,70.99
2017-06-28T00:12:41.359Z,70.8
2017-06-28T00:13:09.619Z,70.61
2017-06-28T00:13:37.753Z,71.19
2017-06-28T00:14:05.891Z,71.09
2017-06-28T00:14:33.873Z,71.28
2017-06-28T00:15:01.923Z,71.37
2017-06-28T00:15:30.062Z,71.28
2017-06-28T00:15:58.205Z,71.28
2017-06-28T00:16:26.326Z,72.05
2017-06-28T00:16:54.365Z,71.37
2017-06-28T00:17:22.348Z,71.47
2017-06-28T00:17:50.482Z,71.47
2017-06-28T00:18:18.663Z,71.76
2017-06-28T00:18:46.785Z,71.66
2017-06-28T00:19:14.852Z,72.05
2017-06-28T00:19:42.899Z,71.76
2017-06-28T00:20:11.062Z,71.76
2017-06-28T00:20:39.174Z,71.86
2017-06-28T00:21:07.145Z,72.33
2017-06-28T00:21:35.280Z,72.53
2017-06-28T00:22:03.421Z,72.81
2017-06-28T00:22:31.461Z,72.63
2017-06-28T00:22:59.472Z,72.43
2017-06-28T00:23:27.618Z,72.72
2017-06-28T00:23:55.649Z,72.43
2017-06-28T00:24:23.775Z,72.81
2017-06-28T00:24:51.950Z,72.81
2017-06-28T00:25:19.988Z,72.91
2017-06-28T00:25:48.065Z,73.39
2017-06-28T00:26:16.200Z,73.77
2017-06-28T00:26:44.366Z,73.2
2017-06-28T00:27:12.516Z,73.49
2017-06-28T00:27:40.660Z,73.58
2017-06-28T00:28:08.801Z,73.87
2017-06-28T00:28:36.955Z,73.87
2017-06-28T00:29:05.003Z,73.87
2017-06-28T00:29:33.133Z,73.93
2017-06-28T00:30:01.267Z,74.22
2017-06-28T00:30:29.403Z,73.83
2017-06-28T00:30:57.562Z,74.02
2017-06-28T00:31:25.707Z,73.83
2017-06-28T00:31:53.753Z,74.12
2017-06-28T00:32:21.812Z,74.31
2017-06-28T00:32:49.949Z,74.31
2017-06-28T00:33:18.099Z,74.31
2017-06-28T00:33:46.242Z,74.41
2017-06-28T00:34:14.295Z,74.02
2017-06-28T00:34:42.416Z,74.41
2017-06-28T00:35:10.562Z,74.31
2017-06-28T00:35:38.701Z,74.31
2017-06-28T00:36:06.657Z,74.41
2017-06-28T00:36:34.796Z,74.41
2017-06-28T00:37:02.923Z,74.31
2017-06-28T00:37:31.050Z,74.31
2017-06-28T00:37:59.187Z,74.31
2017-06-28T00:38:27.244Z,74.12
2017-06-28T00:38:55.287Z,74.12
2017-06-28T00:39:23.436Z,74.12
2017-06-28T00:39:51.569Z,74.31
2017-06-28T00:40:19.634Z,74.22
2017-06-28T00:40:47.801Z,74.51
2017-06-28T00:41:15.930Z,74.69
2017-06-28T00:41:44.085Z,74.6
2017-06-28T00:42:12.241Z,74.89
2017-06-28T00:42:40.174Z,74.89
2017-06-28T00:43:08.314Z,74.79
2017-06-28T00:43:36.474Z,74.98
2017-06-28T00:44:04.553Z,74.79
2017-06-28T00:44:32.695Z,75.08
2017-06-28T00:45:00.862Z,75.27
2017-06-28T00:45:28.982Z,75.18
2017-06-28T00:45:57.145Z,74.98
2017-06-28T00:46:25.171Z,74.98
2017-06-28T00:46:53.325Z,74.98
2017-06-28T00:47:21.492Z,75.46
2017-06-28T00:47:49.623Z,75.37
2017-06-28T00:48:17.777Z,75.46
2017-06-28T00:48:45.883Z,75.56
2017-06-28T00:49:14.002Z,75.75
2017-06-28T00:49:42.151Z,75.95
2017-06-28T00:50:10.298Z,75.75
2017-06-28T00:50:38.428Z,75.37
2017-06-28T00:51:06.591Z,75.46
2017-06-28T00:51:34.621Z,75.46
2017-06-28T00:52:02.761Z,75.37
2017-06-28T00:52:30.904Z,75.56
2017-06-28T00:52:59.022Z,75.56
2017-06-28T00:53:27.157Z,75.27
2017-06-28T00:53:55.305Z,75.46
2017-06-28T00:54:23.483Z,75.56
2017-06-28T00:54:51.629Z,75.65
2017-06-28T00:55:19.765Z,75.46
2017-06-28T00:55:47.887Z,75.75
2017-06-28T00:56:16.055Z,75.65
2017-06-28T00:56:44.095Z,75.75
2017-06-28T00:57:12.256Z,76.14
2017-06-28T00:57:40.318Z,75.75
2017-06-28T00:58:08.435Z,76.32
2017-06-28T00:58:36.473Z,76.04
2017-06-28T00:59:04.606Z,76.23
2017-06-28T00:59:32.778Z,76.71
2017-06-28T01:00:00.930Z,76.52
2017-06-28T01:00:29.078Z,76.52
2017-06-28T01:00:57.218Z,76.71
2017-06-28T01:01:25.269Z,76.71
2017-06-28T01:01:53.418Z,76.23
2017-06-28T01:02:21.476Z,76.32
2017-06-28T01:02:49.624Z,76.52
2017-06-28T01:03:17.731Z,76.42
2017-06-28T01:03:45.881Z,76.52
2017-06-28T01:04:14.038Z,76.32
2017-06-28T01:04:42.102Z,76.71
2017-06-28T01:05:10.170Z,76.71
2017-06-28T01:05:38.205Z,76.62
2017-06-28T01:06:06.365Z,77.19
2017-06-28T01:06:34.422Z,76.62
2017-06-28T01:07:02.558Z,77
2017-06-28T01:07:30.698Z,77.38
2017-06-28T01:07:58.847Z,77.29
2017-06-28T01:08:26.980Z,77.09
2017-06-28T01:08:55.119Z,77.34
2017-06-28T01:09:23.274Z,77.34
2017-06-28T01:09:51.430Z,77.76
2017-06-28T01:10:19.447Z,77.53
2017-06-28T01:10:47.568Z,77.53
2017-06-28T01:11:15.701Z,77.29
2017-06-28T01:11:43.860Z,77.67
2017-06-28T01:12:12.056Z,77.63
2017-06-28T01:12:40.112Z,77.29
2017-06-28T01:13:08.271Z,77.48
2017-06-28T01:13:36.313Z,77.48
2017-06-28T01:14:04.451Z,77.48
2017-06-28T01:14:32.586Z,77.58
2017-06-28T01:15:00.831Z,77.38
2017-06-28T01:15:30.182Z,77.48
2017-06-28T01:15:58.205Z,77.58
2017-06-28T01:16:26.338Z,77.48
2017-06-28T01:16:54.447Z,77.29
2017-06-28T01:17:22.600Z,77.48
2017-06-28T01:17:50.742Z,77.58
2017-06-28T01:18:18.885Z,77.58
2017-06-28T01:18:46.918Z,77.58
2017-06-28T01:19:15.047Z,77.48
2017-06-28T01:19:43.102Z,77.48
2017-06-28T01:20:11.239Z,77.38
2017-06-28T01:20:39.389Z,77.29
2017-06-28T01:21:07.425Z,77.48
2017-06-28T01:21:35.524Z,77.48
2017-06-28T01:22:03.647Z,77.48
2017-06-28T01:22:31.797Z,77.86
2017-06-28T01:22:59.839Z,77.67
2017-06-28T01:23:28.003Z,77.67
2017-06-28T01:23:56.156Z,77.76
2017-06-28T01:24:24.297Z,77.95
2017-06-28T01:24:52.445Z,77.95
2017-06-28T01:25:20.592Z,77.95
2017-06-28T01:25:48.671Z,77.95
2017-06-28T01:26:16.806Z,77.86
2017-06-28T01:26:44.955Z,77.92
2017-06-28T01:27:13.003Z,77.95
2017-06-28T01:27:41.135Z,78.11
2017-06-28T01:28:09.267Z,77.95
2017-06-28T01:28:37.393Z,77.76
2017-06-28T01:29:05.490Z,78.15
2017-06-28T01:29:33.607Z,78.05
2017-06-28T01:30:01.750Z,77.95
2017-06-28T01:30:29.799Z,77.86
2017-06-28T01:30:57.951Z,77.86
2017-06-28T01:31:26.089Z,77.95
2017-06-28T01:31:54.134Z,77.95
2017-06-28T01:32:22.243Z,77.95
2017-06-28T01:32:50.189Z,78.05
2017-06-28T01:33:18.233Z,77.86
2017-06-28T01:33:46.386Z,77.86
2017-06-28T01:34:14.532Z,77.86
2017-06-28T01:34:42.562Z,78.25
2017-06-28T01:35:10.613Z,78.05
2017-06-28T01:35:38.769Z,77.76
2017-06-28T01:36:06.896Z,78.44
2017-06-28T01:36:35.042Z,77.76
2017-06-28T01:37:03.142Z,77.76
2017-06-28T01:37:31.296Z,77.58
2017-06-28T01:37:59.436Z,78.15
2017-06-28T01:38:27.585Z,77.95
2017-06-28T01:38:55.717Z,77.67
2017-06-28T01:39:23.745Z,77.95
2017-06-28T01:39:51.864Z,77.67
2017-06-28T01:40:19.973Z,77.76
2017-06-28T01:40:47.991Z,78.82
2017-06-28T01:41:16.063Z,78.44
2017-06-28T01:41:44.183Z,78.44
2017-06-28T01:42:12.332Z,78.72
2017-06-28T01:42:40.363Z,78.3
2017-06-28T01:43:08.486Z,78.4
2017-06-28T01:43:36.546Z,78.78
2017-06-28T01:44:04.686Z,78.69
2017-06-28T01:44:32.838Z,78.88
2017-06-28T01:45:00.979Z,78.88
2017-06-28T01:45:29.089Z,79.26
2017-06-28T01:45:57.238Z,79.45
2017-06-28T01:46:25.371Z,79.36
2017-06-28T01:46:53.457Z,79.74
2017-06-28T01:47:21.564Z,79.45
2017-06-28T01:47:49.673Z,79.16
2017-06-28T01:48:17.780Z,79.26
2017-06-28T01:48:45.926Z,79.64
2017-06-28T01:49:14.051Z,79.36
2017-06-28T01:49:42.216Z,79.16
2017-06-28T01:50:10.252Z,79.36
2017-06-28T01:50:38.199Z,79.36
2017-06-28T01:51:06.229Z,79.55
2017-06-28T01:51:34.341Z,79.74
2017-06-28T01:52:02.480Z,80.03
2017-06-28T01:52:30.586Z,79.74
2017-06-28T01:52:58.725Z,80.03
2017-06-28T01:53:26.868Z,79.93
2017-06-28T01:53:55.019Z,79.83
2017-06-28T01:54:23.139Z,79.74
2017-06-28T01:54:51.170Z,79.83
2017-06-28T01:55:19.298Z,80.22
2017-06-28T01:55:47.332Z,80.22
2017-06-28T01:56:15.511Z,80.03
2017-06-28T01:56:43.667Z,80.12
2017-06-28T01:57:11.831Z,80.12
2017-06-28T01:57:39.968Z,80.03
2017-06-28T01:58:08.090Z,80.32
2017-06-28T01:58:36.195Z,80.41
2017-06-28T01:59:04.118Z,80.22
2017-06-28T01:59:32.254Z,80.32
2017-06-28T02:00:00.210Z,80.79
2017-06-28T02:00:28.254Z,80.7
2017-06-28T02:00:56.386Z,80.79
2017-06-28T02:01:24.326Z,80.79
2017-06-28T02:01:52.420Z,80.6
2017-06-28T02:02:20.360Z,80.41
2017-06-28T02:02:48.496Z,81.27
2017-06-28T02:03:16.524Z,80.99
2017-06-28T02:03:44.637Z,81.08
2017-06-28T02:04:12.757Z,80.79
2017-06-28T02:04:40.893Z,81.08
2017-06-28T02:05:09.030Z,81.08
2017-06-28T02:05:37.083Z,81.56
2017-06-28T02:06:05.126Z,81.37
2017-06-28T02:06:33.262Z,81.33
2017-06-28T02:07:01.317Z,81.33
2017-06-28T02:07:29.332Z,81.13
2017-06-28T02:07:57.458Z,82.09
2017-06-28T02:08:25.573Z,82
2017-06-28T02:08:53.609Z,81.81
2017-06-28T02:09:21.645Z,82
2017-06-28T02:09:49.769Z,82
2017-06-28T02:10:17.879Z,82.09
2017-06-28T02:10:45.909Z,82.38
2017-06-28T02:11:14.052Z,82.29
2017-06-28T02:11:42.169Z,82.29
2017-06-28T02:12:10.312Z,81.81
2017-06-28T02:12:38.442Z,82.29
2017-06-28T02:13:06.583Z,82.38
2017-06-28T02:13:34.721Z,82.38
2017-06-28T02:14:02.859Z,82.48
2017-06-28T02:14:31.015Z,82.38
2017-06-28T02:14:59.119Z,82.67
2017-06-28T02:15:27.252Z,82.67
2017-06-28T02:15:55.400Z,82.76
2017-06-28T02:16:23.462Z,82.57
2017-06-28T02:16:51.508Z,82.67
2017-06-28T02:17:19.651Z,82.67
2017-06-28T02:17:47.912Z,82.38
2017-06-28T02:18:16.025Z,82.57
2017-06-28T02:18:44.173Z,82
2017-06-28T02:19:12.312Z,82.19
2017-06-28T02:19:40.475Z,82.19
2017-06-28T02:20:08.618Z,82.32
2017-06-28T02:20:36.745Z,82.09
2017-06-28T02:21:04.762Z,82.29
2017-06-28T02:21:32.897Z,82.23
2017-06-28T02:22:01.018Z,82.29
2017-06-28T02:22:29.152Z,82.09
2017-06-28T02:22:57.296Z,81.71
2017-06-28T02:23:25.330Z,82.38
2017-06-28T02:23:53.459Z,82.67
2017-06-28T02:24:21.597Z,82.57
2017-06-28T02:24:49.767Z,82.57
2017-06-28T02:25:17.809Z,82.19
2017-06-28T02:25:45.920Z,82.29
2017-06-28T02:26:14.054Z,82.57
2017-06-28T02:26:42.202Z,82.38
2017-06-28T02:27:10.320Z,82.67
2017-06-28T02:27:38.454Z,82.48
2017-06-28T02:28:06.567Z,82.57
2017-06-28T02:28:34.695Z,82.67
2017-06-28T02:29:02.826Z,82.57
2017-06-28T02:29:30.957Z,82.48
2017-06-28T02:29:59.088Z,82.57
2017-06-28T02:30:27.059Z,82.57
2017-06-28T02:30:55.167Z,82.57
2017-06-28T02:31:23.117Z,83.34
2017-06-28T02:31:51.235Z,83.34
2017-06-28T02:32:19.327Z,83.15
2017-06-28T02:32:47.358Z,83.15
2017-06-28T02:33:15.407Z,83.15
2017-06-28T02:33:43.453Z,82.96
2017-06-28T02:34:11.484Z,83.05
2017-06-28T02:34:39.527Z,83.15
2017-06-28T02:35:07.655Z,83.05
2017-06-28T02:35:35.837Z,83.15
2017-06-28T02:36:03.945Z,83.05
2017-06-28T02:36:32.062Z,82.86
2017-06-28T02:37:00.221Z,83.15
2017-06-28T02:37:28.337Z,83.05
2017-06-28T02:37:56.481Z,82.76
2017-06-28T02:38:24.517Z,83.15
2017-06-28T02:38:52.657Z,83.44
2017-06-28T02:39:20.776Z,82.57
2017-06-28T02:39:48.807Z,82.38
2017-06-28T02:40:16.813Z,82.76
2017-06-28T02:40:44.959Z,82.48
2017-06-28T02:41:13.207Z,82.38
2017-06-28T02:41:41.235Z,82.67
2017-06-28T02:42:09.344Z,82.29
2017-06-28T02:42:37.478Z,82.48
2017-06-28T02:43:05.512Z,82.57
2017-06-28T02:43:33.632Z,82.48
2017-06-28T02:44:01.760Z,82.38
2017-06-28T02:44:29.811Z,82.48
2017-06-28T02:44:57.934Z,82.29
2017-06-28T02:45:26.098Z,82.38
2017-06-28T02:45:54.163Z,82.67
2017-06-28T02:46:22.272Z,82.57
2017-06-28T02:46:50.396Z,82.48
2017-06-28T02:47:18.534Z,82.57
2017-06-28T02:47:46.667Z,82.86
2017-06-28T02:48:14.697Z,82.86
2017-06-28T02:48:42.858Z,83.34
2017-06-28T02:49:11.000Z,83.05
2017-06-28T02:49:39.141Z,82.96
2017-06-28T02:50:07.278Z,82.96
2017-06-28T02:50:35.432Z,83.15
2017-06-28T02:51:03.477Z,82.96
2017-06-28T02:51:31.611Z,82.86
2017-06-28T02:51:59.661Z,83.05
2017-06-28T02:52:27.807Z,83.25
2017-06-28T02:52:55.871Z,83.05
2017-06-28T02:53:24.041Z,83.25
2017-06-28T02:53:52.153Z,83.15
2017-06-28T02:54:20.311Z,83.05
2017-06-28T02:54:48.374Z,82.96
2017-06-28T02:55:16.517Z,83.15
2017-06-28T02:55:44.660Z,83.63
2017-06-28T02:56:12.792Z,83.15
2017-06-28T02:56:40.930Z,83.15
2017-06-28T02:57:09.051Z,83.63
2017-06-28T02:57:37.195Z,83.44
2017-06-28T02:58:05.336Z,83.34
2017-06-28T02:58:33.470Z,83.44
2017-06-28T02:59:01.603Z,83.34
2017-06-28T02:59:29.740Z,83.44
2017-06-28T02:59:57.861Z,83.25
2017-06-28T03:00:25.912Z,83.05
2017-06-28T03:00:54.040Z,83.15
2017-06-28T03:01:22.091Z,83.92
2017-06-28T03:01:50.150Z,83.05
2017-06-28T03:02:18.271Z,83.25
2017-06-28T03:02:46.417Z,83.25
2017-06-28T03:03:14.554Z,82.96
2017-06-28T03:03:42.586Z,83.05
2017-06-28T03:04:10.599Z,83.15
2017-06-28T03:04:38.655Z,83.92
2017-06-28T03:05:06.803Z,83.72
2017-06-28T03:05:34.942Z,83.05
2017-06-28T03:06:03.054Z,82.76
2017-06-28T03:06:31.227Z,83.05
2017-06-28T03:06:59.348Z,83.72
2017-06-28T03:07:27.490Z,83.44
2017-06-28T03:07:55.514Z,83.25
2017-06-28T03:08:23.620Z,83.34
2017-06-28T03:08:51.766Z,83.34
2017-06-28T03:09:19.898Z,83.05
2017-06-28T03:09:47.936Z,83.34
2017-06-28T03:10:16.089Z,83.44
2017-06-28T03:10:44.214Z,83.44
2017-06-28T03:11:12.247Z,83.53
2017-06-28T03:11:40.372Z,83.63
2017-06-28T03:12:08.488Z,83.72
2017-06-28T03:12:36.634Z,83.53
2017-06-28T03:13:04.771Z,83.44
2017-06-28T03:13:32.710Z,83.25
2017-06-28T03:14:00.829Z,83.25
2017-06-28T03:14:28.982Z,83.34
2017-06-28T03:14:57.123Z,83.72
2017-06-28T03:15:25.135Z,83.53
2017-06-28T03:15:53.279Z,83.63
2017-06-28T03:16:21.440Z,83.53
2017-06-28T03:16:49.563Z,83.53
2017-06-28T03:17:17.617Z,83.72
2017-06-28T03:17:45.658Z,83.53
2017-06-28T03:18:13.792Z,83.44
2017-06-28T03:18:41.926Z,83.72
2017-06-28T03:19:10.050Z,83.92
2017-06-28T03:19:38.084Z,83.63
2017-06-28T03:20:06.196Z,84.01
2017-06-28T03:20:34.209Z,83.72
2017-06-28T03:21:02.265Z,83.87
2017-06-28T03:21:30.416Z,83.68
2017-06-28T03:21:58.568Z,83.68
2017-06-28T03:22:26.725Z,83.72
2017-06-28T03:22:54.849Z,84.55
2017-06-28T03:23:22.972Z,83.68
2017-06-28T03:23:51.014Z,83.82
2017-06-28T03:24:19.062Z,83.68
2017-06-28T03:24:47.183Z,83.92
2017-06-28T03:25:15.214Z,84.35
2017-06-28T03:25:43.378Z,84.06
2017-06-28T03:26:11.519Z,84.26
2017-06-28T03:26:39.651Z,84.55
2017-06-28T03:27:07.696Z,84.35
2017-06-28T03:27:35.814Z,84.74
2017-06-28T03:28:03.953Z,84.55
2017-06-28T03:28:32.068Z,84.45
2017-06-28T03:29:00.208Z,84.74
2017-06-28T03:29:28.332Z,85.02
2017-06-28T03:29:56.362Z,85.02
2017-06-28T03:30:24.487Z,85.21
2017-06-28T03:30:52.614Z,85.21
2017-06-28T03:31:20.768Z,85.31
2017-06-28T03:31:48.913Z,85.31
2017-06-28T03:32:16.948Z,85.5
2017-06-28T03:32:44.970Z,85.6
2017-06-28T03:33:13.106Z,85.69
2017-06-28T03:33:41.226Z,85.41
2017-06-28T03:34:09.355Z,86.08
2017-06-28T03:34:37.506Z,85.69
2017-06-28T03:35:05.645Z,85.88
2017-06-28T03:35:33.784Z,86.08
2017-06-28T03:36:01.921Z,85.79
2017-06-28T03:36:29.955Z,86.36
2017-06-28T03:36:58.069Z,86.08
2017-06-28T03:37:26.203Z,86.36
2017-06-28T03:37:54.339Z,86.08
2017-06-28T03:38:22.470Z,86.27
2017-06-28T03:38:50.610Z,86.27
2017-06-28T03:39:18.725Z,86.08
2017-06-28T03:39:46.880Z,86.65
2017-06-28T03:40:15.040Z,86.46
2017-06-28T03:40:43.156Z,86.55
2017-06-28T03:41:11.278Z,86.55
2017-06-28T03:41:39.406Z,86.74
2017-06-28T03:42:07.441Z,86.46
2017-06-28T03:42:35.595Z,86.55
2017-06-28T03:43:03.659Z,86.94
2017-06-28T03:43:31.789Z,86.55
2017-06-28T03:43:59.914Z,87.23
2017-06-28T03:44:28.018Z,87.13
2017-06-28T03:44:56.132Z,87.32
2017-06-28T03:45:24.160Z,87.32
2017-06-28T03:45:52.303Z,87.23
2017-06-28T03:46:20.437Z,87.27
2017-06-28T03:46:48.474Z,87.37
2017-06-28T03:47:16.498Z,88.09
2017-06-28T03:47:44.635Z,88.23
2017-06-28T03:48:12.696Z,87.56
2017-06-28T03:48:40.848Z,87.95
2017-06-28T03:49:08.956Z,87.85
2017-06-28T03:49:37.092Z,88.04
2017-06-28T03:50:05.223Z,88.23
2017-06-28T03:50:33.388Z,87.95
2017-06-28T03:51:01.542Z,88.62
2017-06-28T03:51:29.685Z,88.33
2017-06-28T03:51:57.817Z,88.62
2017-06-28T03:52:25.953Z,88.33
2017-06-28T03:52:53.996Z,88.52
2017-06-28T03:53:22.134Z,88.23
2017-06-28T03:53:50.179Z,88.33
2017-06-28T03:54:18.329Z,88.62
2017-06-28T03:54:46.429Z,88.62
2017-06-28T03:55:14.562Z,89.38
2017-06-28T03:55:42.695Z,89
2017-06-28T03:56:10.851Z,89.19
2017-06-28T03:56:38.890Z,88.62
2017-06-28T03:57:06.951Z,89
2017-06-28T03:57:35.001Z,88.62
2017-06-28T03:58:03.032Z,89.29
2017-06-28T03:58:31.163Z,89.09
2017-06-28T03:58:59.199Z,89.09
2017-06-28T03:59:27.336Z,89
2017-06-28T03:59:55.457Z,88.71
2017-06-28T04:00:24.887Z,88.62
2017-06-28T04:00:53.014Z,89
2017-06-28T04:01:21.165Z,89
2017-06-28T04:01:49.205Z,89
2017-06-28T04:02:17.366Z,88.9
2017-06-28T04:02:45.312Z,89.09
2017-06-28T04:03:13.361Z,89
2017-06-28T04:03:41.408Z,89.09
2017-06-28T04:04:09.450Z,89
2017-06-28T04:04:37.541Z,88.9
2017-06-28T04:05:05.670Z,89
2017-06-28T04:05:33.693Z,89.19
2017-06-28T04:06:01.940Z,89
2017-06-28T04:06:29.881Z,89
2017-06-28T04:06:57.904Z,88.71
2017-06-28T04:07:25.951Z,88.81
2017-06-28T04:07:54.336Z,89
2017-06-28T04:08:22.376Z,88.81
2017-06-28T04:08:50.498Z,88.81
2017-06-28T04:09:18.633Z,89.29
2017-06-28T04:09:46.769Z,88.9
2017-06-28T04:10:14.807Z,89.09
2017-06-28T04:10:42.948Z,89.09
2017-06-28T04:11:11.086Z,89.38
2017-06-28T04:11:39.219Z,89
2017-06-28T04:12:07.382Z,89.38
2017-06-28T04:12:35.525Z,89
2017-06-28T04:13:03.665Z,89
2017-06-28T04:13:31.810Z,88.71
2017-06-28T04:13:59.941Z,88.9
2017-06-28T04:14:28.076Z,88.81
2017-06-28T04:14:56.217Z,89.19
2017-06-28T04:15:24.350Z,89.38
2017-06-28T04:15:52.487Z,89.48
2017-06-28T04:16:20.624Z,89.58
2017-06-28T04:16:48.765Z,89.48
2017-06-28T04:17:16.832Z,89.58
2017-06-28T04:17:44.965Z,89.38
2017-06-28T04:18:13.107Z,89.38
2017-06-28T04:18:41.237Z,89.76
2017-06-28T04:19:09.377Z,90.24
2017-06-28T04:19:37.506Z,89.95
2017-06-28T04:20:05.615Z,90.05
2017-06-28T04:20:33.757Z,90.05
2017-06-28T04:21:01.807Z,89.95
2017-06-28T04:21:29.951Z,90.15
2017-06-28T04:21:58.063Z,90.24
2017-06-28T04:22:26.098Z,90.34
2017-06-28T04:22:54.224Z,90.24
2017-06-28T04:23:22.343Z,90.15
2017-06-28T04:23:50.496Z,90.24
2017-06-28T04:24:18.634Z,90.24
2017-06-28T04:24:46.670Z,90.72
2017-06-28T04:25:14.793Z,90.34
2017-06-28T04:25:42.935Z,91.01
2017-06-28T04:26:11.058Z,91.11
2017-06-28T04:26:39.173Z,91.01
2017-06-28T04:27:07.283Z,91.11
2017-06-28T04:27:35.326Z,90.91
2017-06-28T04:28:03.452Z,91.39
2017-06-28T04:28:31.606Z,91.01
2017-06-28T04:28:59.730Z,91.2
2017-06-28T04:29:27.868Z,91.3
2017-06-28T04:29:56.025Z,91.2
2017-06-28T04:30:24.165Z,91.01
2017-06-28T04:30:52.196Z,91.11
2017-06-28T04:31:20.337Z,91.2
2017-06-28T04:31:48.487Z,91.2
2017-06-28T04:32:16.623Z,91.11
2017-06-28T04:32:44.747Z,91.11
2017-06-28T04:33:12.864Z,91.39
2017-06-28T04:33:40.981Z,91.11
2017-06-28T04:34:09.121Z,91.49
2017-06-28T04:34:37.149Z,91.58
2017-06-28T04:35:05.264Z,91.39
2017-06-28T04:35:33.340Z,91.87
2017-06-28T04:36:01.493Z,91.58
2017-06-28T04:36:29.606Z,92.16
2017-06-28T04:36:57.725Z,92.25
2017-06-28T04:37:25.796Z,92.16
2017-06-28T04:37:53.930Z,91.77
2017-06-28T04:38:22.065Z,91.87
2017-06-28T04:38:50.237Z,92.35
2017-06-28T04:39:18.400Z,92.35
2017-06-28T04:39:46.579Z,92.54
2017-06-28T04:40:14.690Z,92.44
2017-06-28T04:40:42.743Z,92.16
2017-06-28T04:41:10.897Z,92.4
2017-06-28T04:41:38.930Z,92.11
2017-06-28T04:42:07.064Z,92.54
2017-06-28T04:42:35.228Z,92.16
2017-06-28T04:43:03.360Z,92.11
2017-06-28T04:43:31.522Z,92.16
2017-06-28T04:43:59.658Z,92.35
2017-06-28T04:44:27.787Z,92.06
2017-06-28T04:44:55.828Z,92.25
2017-06-28T04:45:23.950Z,92.83
2017-06-28T04:45:51.980Z,92.73
2017-06-28T04:46:20.109Z,92.88
2017-06-28T04:46:48.122Z,92.54
2017-06-28T04:47:16.179Z,92.59
2017-06-28T04:47:44.215Z,92.54
2017-06-28T04:48:12.339Z,92.54
2017-06-28T04:48:40.481Z,92.49
2017-06-28T04:49:08.518Z,92.49
2017-06-28T04:49:36.459Z,92.83
2017-06-28T04:50:04.617Z,92.59
2017-06-28T04:50:32.732Z,92.69
2017-06-28T04:51:00.763Z,93.45
2017-06-28T04:51:28.732Z,93.26
2017-06-28T04:51:56.865Z,93.45
2017-06-28T04:52:24.931Z,93.07
2017-06-28T04:52:53.086Z,92.88
2017-06-28T04:53:21.209Z,92.88
2017-06-28T04:53:49.392Z,92.97
2017-06-28T04:54:17.430Z,93.16
2017-06-28T04:54:45.549Z,93.64
2017-06-28T04:55:13.687Z,93.55
2017-06-28T04:55:41.730Z,93.55
2017-06-28T04:56:09.762Z,93.26
2017-06-28T04:56:37.911Z,93.26
2017-06-28T04:57:05.959Z,93.45
2017-06-28T04:57:34.071Z,93.26
2017-06-28T04:58:01.989Z,93.45
2017-06-28T04:58:30.145Z,93.64
2017-06-28T04:58:58.176Z,93.35
2017-06-28T04:59:26.334Z,93.64
2017-06-28T04:59:54.476Z,93.55
2017-06-28T05:00:22.617Z,93.35
2017-06-28T05:00:50.731Z,93.55
2017-06-28T05:01:18.871Z,93.55
2017-06-28T05:01:47.017Z,93.84
2017-06-28T05:02:15.160Z,93.35
2017-06-28T05:02:43.306Z,93.93
2017-06-28T05:03:11.459Z,93.74
2017-06-28T05:03:39.587Z,93.64
2017-06-28T05:04:07.720Z,93.84
2017-06-28T05:04:35.878Z,93.74
2017-06-28T05:05:03.833Z,94.12
2017-06-28T05:05:31.967Z,93.84
2017-06-28T05:06:00.105Z,93.55
2017-06-28T05:06:28.221Z,93.64
2017-06-28T05:06:56.355Z,93.45
2017-06-28T05:07:24.516Z,93.16
2017-06-28T05:07:52.663Z,93.45
2017-06-28T05:08:20.796Z,93.55
2017-06-28T05:08:48.919Z,93.26
2017-06-28T05:09:17.054Z,93.64
2017-06-28T05:09:45.191Z,93.26
2017-06-28T05:10:13.324Z,93.55
2017-06-28T05:10:41.453Z,93.16
2017-06-28T05:11:09.580Z,93.35
2017-06-28T05:11:37.704Z,92.88
2017-06-28T05:12:05.749Z,92.97
2017-06-28T05:12:33.895Z,93.26
2017-06-28T05:13:01.929Z,93.12
2017-06-28T05:13:30.064Z,92.97
2017-06-28T05:13:58.214Z,92.78
2017-06-28T05:14:26.343Z,93.12
2017-06-28T05:14:54.479Z,92.83
2017-06-28T05:15:22.596Z,92.49
2017-06-28T05:15:50.735Z,92.73
2017-06-28T05:16:18.782Z,92.73
2017-06-28T05:16:46.896Z,92.63
2017-06-28T05:17:15.013Z,92.78
2017-06-28T05:17:43.127Z,92.78
2017-06-28T05:18:11.237Z,92.88
2017-06-28T05:18:39.364Z,93.02
2017-06-28T05:19:07.511Z,93.69
2017-06-28T05:19:35.678Z,93.74
2017-06-28T05:20:03.813Z,93.64
2017-06-28T05:20:31.949Z,93.55
2017-06-28T05:21:00.084Z,94.12
2017-06-28T05:21:28.109Z,93.84
2017-06-28T05:21:56.250Z,93.74
2017-06-28T05:22:24.404Z,93.64
2017-06-28T05:22:52.526Z,93.84
2017-06-28T05:23:20.653Z,93.45
2017-06-28T05:23:48.776Z,93.74
2017-06-28T05:24:16.937Z,93.84
2017-06-28T05:24:45.056Z,93.45
2017-06-28T05:25:13.195Z,93.74
2017-06-28T05:25:41.331Z,93.74
2017-06-28T05:26:09.474Z,93.74
2017-06-28T05:26:37.607Z,93.74
2017-06-28T05:27:05.630Z,93.93
2017-06-28T05:27:33.779Z,93.84
2017-06-28T05:28:01.882Z,93.84
2017-06-28T05:28:30.027Z,93.74
2017-06-28T05:28:58.063Z,94.02
2017-06-28T05:29:26.197Z,93.64
2017-06-28T05:29:54.343Z,93.93
2017-06-28T05:30:22.479Z,93.84
2017-06-28T05:30:50.612Z,94.12
2017-06-28T05:31:18.673Z,94.21
2017-06-28T05:31:46.742Z,94.5
2017-06-28T05:32:14.878Z,94.5
2017-06-28T05:32:42.965Z,94.31
2017-06-28T05:33:11.125Z,94.31
2017-06-28T05:33:39.280Z,94.98
2017-06-28T05:34:07.412Z,94.31
2017-06-28T05:34:35.546Z,94.12
2017-06-28T05:35:03.686Z,95.17
2017-06-28T05:35:31.789Z,94.79
2017-06-28T05:35:59.820Z,94.89
2017-06-28T05:36:27.967Z,94.79
2017-06-28T05:36:56.084Z,94.7
2017-06-28T05:37:24.138Z,94.7
2017-06-28T05:37:52.273Z,94.7
2017-06-28T05:38:20.414Z,94.6
2017-06-28T05:38:48.457Z,94.5
2017-06-28T05:39:16.518Z,94.5
2017-06-28T05:39:44.586Z,94.6
2017-06-28T05:40:12.615Z,94.7
2017-06-28T05:40:40.759Z,94.7
2017-06-28T05:41:08.807Z,94.79
2017-06-28T05:41:36.966Z,94.6
2017-06-28T05:42:05.108Z,94.6
2017-06-28T05:42:33.147Z,94.6
2017-06-28T05:43:01.274Z,95.17
2017-06-28T05:43:29.397Z,94.89
2017-06-28T05:43:57.539Z,94.6
2017-06-28T05:44:25.685Z,94.79
2017-06-28T05:44:53.729Z,94.89
2017-06-28T05:45:21.887Z,94.79
2017-06-28T05:45:49.921Z,95.46
2017-06-28T05:46:17.969Z,95.56
2017-06-28T05:46:46.023Z,95.36
2017-06-28T05:47:14.053Z,95.27
2017-06-28T05:47:41.990Z,95.17
2017-06-28T05:48:10.054Z,95.27
2017-06-28T05:48:38.199Z,95.36
2017-06-28T05:49:06.359Z,95.27
2017-06-28T05:49:34.433Z,95.36
2017-06-28T05:50:02.574Z,95.46
2017-06-28T05:50:30.719Z,94.79
2017-06-28T05:50:58.887Z,95.36
2017-06-28T05:51:27.038Z,95.27
2017-06-28T05:51:55.080Z,94.79
2017-06-28T05:52:23.196Z,95.46
2017-06-28T05:52:51.245Z,94.98
2017-06-28T05:53:19.271Z,94.79
2017-06-28T05:53:47.401Z,94.6
2017-06-28T05:54:15.522Z,95.65
2017-06-28T05:54:43.560Z,94.89
2017-06-28T05:55:11.701Z,94.41
2017-06-28T05:55:39.761Z,94.5
2017-06-28T05:56:07.909Z,94.41
2017-06-28T05:56:36.046Z,95.17
2017-06-28T05:57:04.185Z,95.46
2017-06-28T05:57:32.351Z,94.79
2017-06-28T05:58:00.407Z,94.79
2017-06-28T05:58:28.439Z,94.41
2017-06-28T05:58:56.573Z,94.79
2017-06-28T05:59:24.722Z,94.98
2017-06-28T05:59:52.788Z,94.98
2017-06-28T06:00:21.023Z,94.98
2017-06-28T06:00:49.056Z,95.56
2017-06-28T06:01:17.317Z,95.56
2017-06-28T06:01:45.455Z,95.46
2017-06-28T06:02:13.611Z,94.79
2017-06-28T06:02:41.732Z,95.56
2017-06-28T06:03:09.858Z,95.56